createdAt,value
2023-03-28T00:00:57.409Z,101195.28
2023-03-28T00:03:27.210Z,101187.63
2023-03-28T00:06:00.869Z,101195.09
2023-03-28T00:08:29.487Z,101197.41
2023-03-28T00:11:23.967Z,101206.84
2023-03-28T00:13:57.717Z,101203.69
2023-03-28T00:16:25.850Z,101212.97
2023-03-28T00:18:53.489Z,101211.63
2023-03-28T00:21:23.670Z,101219.50
2023-03-28T00:23:57.118Z,101221.22
2023-03-28T00:26:26.627Z,101223.16
2023-03-28T00:28:54.838Z,101223.22
2023-03-28T00:31:23.271Z,101223.06
2023-03-28T00:33:50.770Z,101225.66
2023-03-28T00:36:23.041Z,101236.03
2023-03-28T00:38:50.397Z,101230.31
2023-03-28T00:41:18.474Z,101239.75
2023-03-28T00:43:48.435Z,101246.59
2023-03-28T00:46:30.707Z,101250.75
2023-03-28T00:49:01.496Z,101252.84
2023-03-28T00:51:36.878Z,101260.91
2023-03-28T00:54:08.495Z,101258.00
2023-03-28T00:56:37.912Z,101257.91
2023-03-28T00:59:10.812Z,101256.59
2023-03-28T01:01:38.435Z,101257.63
2023-03-28T01:04:06.892Z,101268.75
2023-03-28T01:06:40.585Z,101272.91
2023-03-28T01:09:09.970Z,101282.53
2023-03-28T01:11:41.016Z,101278.56
2023-03-28T01:14:17.812Z,101288.56
2023-03-28T01:16:47.827Z,101291.00
2023-03-28T01:19:37.336Z,101290.13
2023-03-28T01:22:16.588Z,101288.28
2023-03-28T01:24:59.130Z,101294.13
2023-03-28T01:27:45.635Z,101294.44
2023-03-28T01:30:34.109Z,101301.25
2023-03-28T01:33:49.565Z,101299.44
2023-03-28T01:36:45.704Z,101301.50
2023-03-28T01:39:39.696Z,101307.31
2023-03-28T01:42:38.105Z,101305.31
2023-03-28T01:45:41.436Z,101318.91
2023-03-28T01:48:14.883Z,101326.25
2023-03-28T01:50:48.306Z,101324.69
2023-03-28T01:53:31.882Z,101329.59
2023-03-28T01:56:26.584Z,101330.94
2023-03-28T01:59:04.969Z,101326.63
2023-03-28T02:02:01.913Z,101329.59
2023-03-28T02:04:33.696Z,101327.75
2023-03-28T02:07:03.028Z,101331.72
2023-03-28T02:09:37.747Z,101331.53
2023-03-28T02:12:52.081Z,101332.25
2023-03-28T02:15:39.768Z,101337.13
2023-03-28T02:18:34.201Z,101355.63
2023-03-28T02:21:45.538Z,101355.44
2023-03-28T02:24:42.513Z,101361.88
2023-03-28T02:27:22.596Z,101358.38
2023-03-28T02:30:09.811Z,101357.50
2023-03-28T02:32:38.693Z,101357.72
2023-03-28T02:35:07.262Z,101354.94
2023-03-28T02:38:08.320Z,101355.13
2023-03-28T02:40:54.114Z,101360.53
2023-03-28T02:43:33.410Z,101352.44
2023-03-28T02:46:01.211Z,101355.06
2023-03-28T02:48:49.627Z,101355.66
2023-03-28T02:51:23.645Z,101365.09
2023-03-28T02:54:12.644Z,101364.97
2023-03-28T02:56:53.017Z,101367.88
2023-03-28T02:59:46.469Z,101366.22
2023-03-28T03:02:19.161Z,101371.38
2023-03-28T03:04:46.772Z,101376.69
2023-03-28T03:07:14.590Z,101367.50
2023-03-28T03:09:43.793Z,101360.66
2023-03-28T03:12:13.725Z,101363.41
2023-03-28T03:14:42.096Z,101367.25
2023-03-28T03:17:30.446Z,101366.94
2023-03-28T03:19:59.105Z,101375.75
2023-03-28T03:22:35.173Z,101376.50
2023-03-28T03:25:06.727Z,101389.66
2023-03-28T03:27:41.012Z,101390.88
2023-03-28T03:30:11.877Z,101386.53
2023-03-28T03:33:00.712Z,101392.69
2023-03-28T03:35:33.540Z,101386.97
2023-03-28T03:38:04.679Z,101398.28
2023-03-28T03:40:32.155Z,101395.28
2023-03-28T03:43:00.292Z,101401.22
2023-03-28T03:45:28.582Z,101398.38
2023-03-28T03:47:56.005Z,101393.28
2023-03-28T03:50:23.564Z,101400.38
2023-03-28T03:52:51.131Z,101400.09
2023-03-28T03:55:24.065Z,101407.66
2023-03-28T03:57:51.373Z,101401.69
2023-03-28T04:00:18.850Z,101410.94
2023-03-28T04:02:50.596Z,101410.94
2023-03-28T04:05:22.881Z,101413.97
2023-03-28T04:08:02.199Z,101416.66
2023-03-28T04:10:38.515Z,101421.81
2023-03-28T04:13:05.998Z,101417.75
2023-03-28T04:15:34.961Z,101419.78
2023-03-28T04:18:06.910Z,101421.50
2023-03-28T04:20:41.173Z,101424.22
2023-03-28T04:23:09.677Z,101435.56
2023-03-28T04:25:41.716Z,101443.66
2023-03-28T04:28:19.838Z,101438.22
2023-03-28T04:30:59.893Z,101432.56
2023-03-28T04:33:50.088Z,101435.28
2023-03-28T04:36:22.538Z,101443.63
2023-03-28T04:39:02.338Z,101442.28
2023-03-28T04:41:46.325Z,101443.63
2023-03-28T04:44:29.509Z,101444.94
2023-03-28T04:47:02.407Z,101445.75
2023-03-28T04:49:29.897Z,101439.25
2023-03-28T04:51:57.317Z,101440.09
2023-03-28T04:54:24.627Z,101444.91
2023-03-28T04:57:05.000Z,101440.59
2023-03-28T04:59:46.750Z,101447.34
2023-03-28T05:02:38.060Z,101449.81
2023-03-28T05:05:07.602Z,101452.28
2023-03-28T05:07:35.688Z,101457.97
2023-03-28T05:10:04.311Z,101457.09
2023-03-28T05:12:37.108Z,101459.81
2023-03-28T05:15:06.329Z,101463.56
2023-03-28T05:17:42.901Z,101469.25
2023-03-28T05:20:32.657Z,101469.53
2023-03-28T05:23:01.356Z,101473.56
2023-03-28T05:25:29.352Z,101471.91
2023-03-28T05:27:56.959Z,101468.84
2023-03-28T05:30:25.297Z,101476.34
2023-03-28T05:32:55.569Z,101470.09
2023-03-28T05:35:23.047Z,101478.91
2023-03-28T05:37:51.559Z,101484.84
2023-03-28T05:40:19.388Z,101485.44
2023-03-28T05:42:46.771Z,101483.09
2023-03-28T05:45:16.423Z,101494.13
2023-03-28T05:47:56.928Z,101493.75
2023-03-28T05:50:24.950Z,101489.34
2023-03-28T05:52:56.985Z,101499.03
2023-03-28T05:55:24.691Z,101493.84
2023-03-28T05:57:52.123Z,101498.47
2023-03-28T06:00:21.208Z,101495.91
2023-03-28T06:02:54.796Z,101506.66
2023-03-28T06:05:31.485Z,101492.03
2023-03-28T06:07:59.035Z,101498.63
2023-03-28T06:10:29.369Z,101497.28
2023-03-28T06:13:11.663Z,101499.38
2023-03-28T06:15:39.030Z,101508.75
2023-03-28T06:18:06.840Z,101522.75
2023-03-28T06:20:34.233Z,101517.31
2023-03-28T06:23:03.649Z,101510.41
2023-03-28T06:25:31.761Z,101511.31
2023-03-28T06:27:59.193Z,101511.25
2023-03-28T06:30:26.536Z,101512.25
2023-03-28T06:32:54.362Z,101520.56
2023-03-28T06:35:21.762Z,101526.81
2023-03-28T06:37:49.437Z,101536.97
2023-03-28T06:40:23.391Z,101535.59
2023-03-28T06:42:51.217Z,101537.53
2023-03-28T06:45:30.239Z,101545.91
2023-03-28T06:48:03.068Z,101544.41
2023-03-28T06:50:57.227Z,101546.84
2023-03-28T06:53:26.282Z,101550.91
2023-03-28T06:55:55.013Z,101543.31
2023-03-28T06:58:23.251Z,101550.75
2023-03-28T07:01:01.331Z,101549.63
2023-03-28T07:03:52.044Z,101547.94
2023-03-28T07:06:21.968Z,101573.41
2023-03-28T07:08:49.516Z,101565.84
2023-03-28T07:11:20.592Z,101575.72
2023-03-28T07:13:50.580Z,101580.00
2023-03-28T07:16:19.662Z,101579.31
2023-03-28T07:18:47.205Z,101586.78
2023-03-28T07:21:20.531Z,101589.44
2023-03-28T07:23:47.922Z,101595.22
2023-03-28T07:26:19.139Z,101598.31
2023-03-28T07:28:46.579Z,101595.75
2023-03-28T07:31:13.946Z,101598.88
2023-03-28T07:33:41.476Z,101611.94
2023-03-28T07:36:15.687Z,101617.03
2023-03-28T07:38:48.067Z,101616.00
2023-03-28T07:41:17.018Z,101619.78
2023-03-28T07:43:44.867Z,101616.66
2023-03-28T07:46:15.021Z,101621.59
2023-03-28T07:48:43.481Z,101619.91
2023-03-28T07:51:11.373Z,101621.97
2023-03-28T07:53:39.691Z,101627.16
2023-03-28T07:56:12.149Z,101637.03
2023-03-28T07:58:58.442Z,101631.78
2023-03-28T08:01:26.419Z,101631.47
2023-03-28T08:03:59.464Z,101644.25
2023-03-28T08:06:38.145Z,101649.28
2023-03-28T08:09:10.577Z,101644.69
2023-03-28T08:11:42.119Z,101651.41
2023-03-28T08:14:15.788Z,101660.50
2023-03-28T08:16:44.340Z,101656.09
2023-03-28T08:19:12.676Z,101652.56
2023-03-28T08:22:02.629Z,101654.09
2023-03-28T08:24:36.132Z,101661.94
2023-03-28T08:27:12.497Z,101658.72
2023-03-28T08:29:41.719Z,101665.34
2023-03-28T08:32:09.924Z,101663.34
2023-03-28T08:34:38.033Z,101662.63
2023-03-28T08:37:12.011Z,101663.50
2023-03-28T08:39:42.704Z,101668.91
2023-03-28T08:42:14.667Z,101663.16
2023-03-28T08:45:03.395Z,101669.16
2023-03-28T08:47:33.067Z,101670.75
2023-03-28T08:50:12.279Z,101668.06
2023-03-28T08:52:41.667Z,101666.03
2023-03-28T08:55:36.856Z,101675.56
2023-03-28T08:58:07.129Z,101671.84
2023-03-28T09:00:38.908Z,101674.34
2023-03-28T09:03:13.022Z,101658.63
2023-03-28T09:06:02.357Z,101667.59
2023-03-28T09:09:04.732Z,101660.78
2023-03-28T09:11:58.606Z,101652.16
2023-03-28T09:14:41.186Z,101656.84
2023-03-28T09:17:31.277Z,101670.03
2023-03-28T09:20:16.490Z,101665.72
2023-03-28T09:23:01.744Z,101664.56
2023-03-28T09:26:01.732Z,101644.66
2023-03-28T09:28:44.888Z,101646.59
2023-03-28T09:31:14.296Z,101658.09
2023-03-28T09:33:46.082Z,101664.97
2023-03-28T09:36:25.942Z,101669.69
2023-03-28T09:38:59.055Z,101663.75
2023-03-28T09:41:43.988Z,101671.28
2023-03-28T09:44:47.328Z,101672.31
2023-03-28T09:47:53.398Z,101665.50
2023-03-28T09:50:24.407Z,101670.53
2023-03-28T09:52:57.480Z,101675.28
2023-03-28T09:55:28.009Z,101671.22
2023-03-28T09:58:05.421Z,101669.50
2023-03-28T10:00:46.560Z,101675.66
2023-03-28T10:03:56.664Z,101673.25
2023-03-28T10:06:45.600Z,101666.91
2023-03-28T10:09:12.935Z,101671.69
2023-03-28T10:11:54.515Z,101674.56
2023-03-28T10:14:42.019Z,101674.81
2023-03-28T10:17:27.623Z,101672.41
2023-03-28T10:20:01.841Z,101677.84
2023-03-28T10:22:39.370Z,101670.94
2023-03-28T10:25:15.423Z,101670.03
2023-03-28T10:27:44.417Z,101671.66
2023-03-28T10:30:20.941Z,101672.09
2023-03-28T10:33:21.333Z,101662.72
2023-03-28T10:36:10.512Z,101672.44
2023-03-28T10:38:48.507Z,101655.44
2023-03-28T10:41:59.605Z,101658.06
2023-03-28T10:44:59.855Z,101669.69
2023-03-28T10:47:30.680Z,101664.91
2023-03-28T10:50:07.163Z,101656.22
2023-03-28T10:52:40.567Z,101665.31
2023-03-28T10:55:20.808Z,101669.44
2023-03-28T10:58:26.222Z,101658.25
2023-03-28T11:01:04.715Z,101664.28
2023-03-28T11:03:51.731Z,101672.81
2023-03-28T11:06:39.484Z,101660.91
2023-03-28T11:09:23.301Z,101646.19
2023-03-28T11:13:04.814Z,101654.50
2023-03-28T11:15:53.719Z,101647.50
2023-03-28T11:18:48.245Z,101651.75
2023-03-28T11:21:28.212Z,101652.72
2023-03-28T11:24:23.992Z,101644.88
2023-03-28T11:27:23.230Z,101645.66
2023-03-28T11:30:14.758Z,101642.06
2023-03-28T11:33:00.646Z,101647.75
2023-03-28T11:35:33.973Z,101646.47
2023-03-28T11:38:12.747Z,101645.50
2023-03-28T11:41:07.253Z,101638.31
2023-03-28T11:44:11.644Z,101640.22
2023-03-28T11:46:56.558Z,101626.22
2023-03-28T11:49:33.917Z,101623.16
2023-03-28T11:52:09.164Z,101631.88
2023-03-28T11:54:52.390Z,101627.06
2023-03-28T11:57:28.997Z,101638.00
2023-03-28T12:00:40.937Z,101631.84
2023-03-28T12:03:37.363Z,101634.81
2023-03-28T12:06:26.051Z,101622.38
2023-03-28T12:09:04.441Z,101617.00
2023-03-28T12:11:51.637Z,101617.81
2023-03-28T12:14:37.763Z,101626.50
2023-03-28T12:17:22.207Z,101616.97
2023-03-28T12:19:49.744Z,101620.22
2023-03-28T12:22:26.767Z,101615.59
2023-03-28T12:25:18.368Z,101611.53
2023-03-28T12:28:01.303Z,101611.84
2023-03-28T12:30:45.461Z,101598.13
2023-03-28T12:33:51.535Z,101583.88
2023-03-28T12:37:12.291Z,101591.34
2023-03-28T12:39:54.878Z,101591.56
2023-03-28T12:42:27.295Z,101589.88
2023-03-28T12:45:03.702Z,101583.09
2023-03-28T12:47:45.058Z,101588.31
2023-03-28T12:50:25.301Z,101590.19
2023-03-28T12:52:53.686Z,101582.19
2023-03-28T12:55:34.152Z,101579.59
2023-03-28T12:58:20.764Z,101586.00
2023-03-28T13:01:06.138Z,101578.38
2023-03-28T13:03:42.388Z,101582.50
2023-03-28T13:06:28.270Z,101578.75
2023-03-28T13:09:14.528Z,101580.91
2023-03-28T13:11:52.668Z,101578.16
2023-03-28T13:14:36.607Z,101576.59
2023-03-28T13:17:25.284Z,101569.97
2023-03-28T13:19:53.516Z,101568.69
2023-03-28T13:22:32.924Z,101564.31
2023-03-28T13:25:22.259Z,101567.09
2023-03-28T13:27:51.759Z,101573.25
2023-03-28T13:30:21.527Z,101558.91
2023-03-28T13:32:51.018Z,101567.09
2023-03-28T13:35:42.995Z,101574.47
2023-03-28T13:38:29.373Z,101563.22
2023-03-28T13:41:01.377Z,101553.97
2023-03-28T13:43:34.977Z,101558.38
2023-03-28T13:46:19.513Z,101560.75
2023-03-28T13:49:01.220Z,101549.97
2023-03-28T13:51:39.104Z,101555.03
2023-03-28T13:54:10.680Z,101555.22
2023-03-28T13:56:43.653Z,101547.97
2023-03-28T13:59:26.634Z,101545.66
2023-03-28T14:01:57.507Z,101540.44
2023-03-28T14:04:35.872Z,101533.44
2023-03-28T14:07:03.488Z,101534.41
2023-03-28T14:09:35.346Z,101529.94
2023-03-28T14:12:06.627Z,101536.63
2023-03-28T14:14:47.459Z,101542.19
2023-03-28T14:17:18.291Z,101537.19
2023-03-28T14:19:51.222Z,101534.69
2023-03-28T14:22:21.586Z,101541.22
2023-03-28T14:24:52.917Z,101529.09
2023-03-28T14:27:41.505Z,101527.75
2023-03-28T14:30:39.268Z,101522.19
2023-03-28T14:33:14.667Z,101524.69
2023-03-28T14:35:43.015Z,101521.75
2023-03-28T14:38:30.089Z,101515.22
2023-03-28T14:41:06.812Z,101515.72
2023-03-28T14:43:34.578Z,101520.47
2023-03-28T14:46:06.619Z,101514.13
2023-03-28T14:48:36.963Z,101516.31
2023-03-28T14:51:05.881Z,101521.66
2023-03-28T14:53:40.950Z,101509.88
2023-03-28T14:56:12.803Z,101516.16
2023-03-28T14:58:43.817Z,101526.53
2023-03-28T15:01:22.686Z,101520.56
2023-03-28T15:04:06.685Z,101513.63
2023-03-28T15:06:35.342Z,101502.78
2023-03-28T15:09:11.269Z,101510.78
2023-03-28T15:11:43.462Z,101512.69
2023-03-28T15:14:22.991Z,101498.97
2023-03-28T15:16:50.824Z,101504.47
2023-03-28T15:19:34.365Z,101503.63
2023-03-28T15:22:05.301Z,101500.75
2023-03-28T15:24:35.513Z,101493.00
2023-03-28T15:27:04.155Z,101496.84
2023-03-28T15:29:36.050Z,101497.56
2023-03-28T15:32:13.723Z,101496.69
2023-03-28T15:34:55.536Z,101510.41
2023-03-28T15:37:25.899Z,101503.28
2023-03-28T15:39:53.837Z,101515.03
2023-03-28T15:42:21.397Z,101506.19
2023-03-28T15:44:57.567Z,101505.31
2023-03-28T15:47:30.198Z,101510.41
2023-03-28T15:50:36.070Z,101514.25
2023-03-28T15:53:07.379Z,101516.94
2023-03-28T15:55:35.031Z,101527.03
2023-03-28T15:58:04.784Z,101517.78
2023-03-28T16:00:42.462Z,101516.19
2023-03-28T16:03:21.757Z,101517.38
2023-03-28T16:06:01.880Z,101531.81
2023-03-28T16:08:41.180Z,101526.84
2023-03-28T16:11:17.146Z,101525.38
2023-03-28T16:14:04.437Z,101525.22
2023-03-28T16:16:56.431Z,101527.09
2023-03-28T16:19:36.677Z,101531.53
2023-03-28T16:22:04.107Z,101534.88
2023-03-28T16:24:31.518Z,101536.91
2023-03-28T16:26:59.840Z,101530.63
2023-03-28T16:29:27.907Z,101534.66
2023-03-28T16:31:55.265Z,101548.63
2023-03-28T16:34:22.655Z,101535.50
2023-03-28T16:36:50.041Z,101541.00
2023-03-28T16:39:17.466Z,101534.50
2023-03-28T16:41:44.761Z,101530.53
2023-03-28T16:44:11.987Z,101538.16
2023-03-28T16:46:39.498Z,101547.69
2023-03-28T16:49:07.541Z,101550.75
2023-03-28T16:51:34.870Z,101546.44
2023-03-28T16:54:02.220Z,101551.63
2023-03-28T16:56:30.266Z,101559.06
2023-03-28T16:58:57.688Z,101555.41
2023-03-28T17:01:25.229Z,101552.31
2023-03-28T17:03:53.584Z,101557.44
2023-03-28T17:06:21.864Z,101557.56
2023-03-28T17:08:49.543Z,101550.25
2023-03-28T17:11:16.885Z,101560.22
2023-03-28T17:13:44.188Z,101559.53
2023-03-28T17:16:11.618Z,101565.66
2023-03-28T17:18:38.995Z,101558.28
2023-03-28T17:21:09.329Z,101567.19
2023-03-28T17:23:38.052Z,101559.19
2023-03-28T17:26:08.323Z,101555.47
2023-03-28T17:28:39.207Z,101568.69
2023-03-28T17:31:11.745Z,101565.81
2023-03-28T17:33:39.586Z,101564.38
2023-03-28T17:36:22.001Z,101565.13
2023-03-28T17:38:51.557Z,101567.72
2023-03-28T17:41:19.883Z,101570.94
2023-03-28T17:43:47.360Z,101562.50
2023-03-28T17:46:15.210Z,101564.19
2023-03-28T17:48:43.304Z,101576.16
2023-03-28T17:51:11.679Z,101572.81
2023-03-28T17:53:41.031Z,101578.66
2023-03-28T17:56:09.743Z,101587.06
2023-03-28T17:58:37.767Z,101591.75
2023-03-28T18:01:13.518Z,101588.03
2023-03-28T18:03:41.648Z,101591.63
2023-03-28T18:06:29.363Z,101597.91
2023-03-28T18:08:56.691Z,101591.13
2023-03-28T18:11:24.027Z,101592.59
2023-03-28T18:13:53.671Z,101601.16
2023-03-28T18:16:21.035Z,101614.53
2023-03-28T18:18:48.453Z,101620.31
2023-03-28T18:21:15.852Z,101613.22
2023-03-28T18:23:43.537Z,101618.38
2023-03-28T18:26:12.138Z,101629.50
2023-03-28T18:28:39.809Z,101630.94
2023-03-28T18:31:12.498Z,101630.13
2023-03-28T18:33:42.201Z,101631.75
2023-03-28T18:36:10.699Z,101639.16
2023-03-28T18:38:40.150Z,101641.38
2023-03-28T18:41:08.368Z,101648.63
2023-03-28T18:43:37.721Z,101651.66
2023-03-28T18:46:07.763Z,101652.13
2023-03-28T18:48:36.265Z,101661.78
2023-03-28T18:51:06.653Z,101668.56
2023-03-28T18:53:35.555Z,101667.06
2023-03-28T18:56:04.074Z,101669.47
2023-03-28T18:58:32.365Z,101671.69
2023-03-28T19:01:04.074Z,101672.47
2023-03-28T19:03:42.282Z,101667.69
2023-03-28T19:06:12.402Z,101665.56
2023-03-28T19:08:40.428Z,101677.50
2023-03-28T19:11:19.034Z,101676.38
2023-03-28T19:13:47.090Z,101685.03
2023-03-28T19:16:19.391Z,101685.84
2023-03-28T19:18:47.304Z,101690.28
2023-03-28T19:21:16.723Z,101694.34
2023-03-28T19:23:44.600Z,101701.00
2023-03-28T19:26:13.099Z,101701.31
2023-03-28T19:28:41.552Z,101703.25
2023-03-28T19:31:11.173Z,101703.75
2023-03-28T19:33:40.839Z,101702.50
2023-03-28T19:36:09.801Z,101701.69
2023-03-28T19:38:38.720Z,101702.88
2023-03-28T19:41:15.744Z,101698.22
2023-03-28T19:43:43.666Z,101709.06
2023-03-28T19:46:15.477Z,101713.41
2023-03-28T19:48:42.894Z,101714.84
2023-03-28T19:51:10.323Z,101705.16
2023-03-28T19:53:37.782Z,101703.38
2023-03-28T19:56:06.770Z,101699.56
2023-03-28T19:58:35.159Z,101707.69
2023-03-28T20:01:04.084Z,101705.22
2023-03-28T20:03:31.883Z,101708.00
2023-03-28T20:06:08.540Z,101717.94
2023-03-28T20:08:35.949Z,101715.66
2023-03-28T20:11:07.218Z,101714.03
2023-03-28T20:13:34.868Z,101701.97
2023-03-28T20:16:04.365Z,101710.56
2023-03-28T20:18:32.675Z,101712.47
2023-03-28T20:21:02.654Z,101707.53
2023-03-28T20:23:32.760Z,101710.66
2023-03-28T20:26:01.685Z,101711.50
2023-03-28T20:28:32.004Z,101709.97
2023-03-28T20:30:59.777Z,101715.66
2023-03-28T20:33:27.302Z,101710.91
2023-03-28T20:35:57.133Z,101718.41
2023-03-28T20:38:25.955Z,101712.53
2023-03-28T20:40:53.324Z,101718.59
2023-03-28T20:43:21.089Z,101721.81
2023-03-28T20:45:56.250Z,101722.72
2023-03-28T20:48:37.221Z,101720.09
2023-03-28T20:51:14.313Z,101715.88
2023-03-28T20:53:50.130Z,101721.13
2023-03-28T20:56:19.988Z,101726.66
2023-03-28T20:58:48.311Z,101720.09
2023-03-28T21:01:16.516Z,101719.09
2023-03-28T21:03:48.272Z,101720.69
2023-03-28T21:06:28.900Z,101716.25
2023-03-28T21:09:01.759Z,101712.44
2023-03-28T21:11:31.983Z,101705.16
2023-03-28T21:14:00.383Z,101710.50
2023-03-28T21:16:29.495Z,101712.31
2023-03-28T21:18:57.452Z,101712.50
2023-03-28T21:21:25.187Z,101727.91
2023-03-28T21:23:53.210Z,101742.44
2023-03-28T21:26:22.947Z,101746.88
2023-03-28T21:28:52.519Z,101743.63
2023-03-28T21:31:24.919Z,101729.13
2023-03-28T21:33:59.435Z,101728.53
2023-03-28T21:36:28.033Z,101722.38
2023-03-28T21:38:56.196Z,101728.41
2023-03-28T21:41:23.891Z,101733.66
2023-03-28T21:43:53.671Z,101721.66
2023-03-28T21:46:21.995Z,101720.06
2023-03-28T21:48:50.005Z,101710.56
2023-03-28T21:51:17.833Z,101716.16
2023-03-28T21:53:46.182Z,101721.88
2023-03-28T21:56:16.279Z,101727.03
2023-03-28T21:58:44.029Z,101722.97
2023-03-28T22:01:13.861Z,101732.44
2023-03-28T22:03:41.462Z,101726.25
2023-03-28T22:06:09.172Z,101718.59
2023-03-28T22:08:36.697Z,101725.59
2023-03-28T22:11:13.492Z,101731.03
2023-03-28T22:13:42.005Z,101725.84
2023-03-28T22:16:09.638Z,101716.84
2023-03-28T22:18:37.104Z,101733.63
2023-03-28T22:21:04.971Z,101746.50
2023-03-28T22:23:32.327Z,101745.16
2023-03-28T22:25:59.669Z,101750.78
2023-03-28T22:28:27.059Z,101752.16
2023-03-28T22:30:55.345Z,101746.84
2023-03-28T22:33:24.132Z,101739.97
2023-03-28T22:35:51.806Z,101748.00
2023-03-28T22:38:19.518Z,101736.19
2023-03-28T22:40:47.622Z,101740.72
2023-03-28T22:43:16.413Z,101743.00
2023-03-28T22:45:43.895Z,101743.91
2023-03-28T22:48:14.643Z,101754.38
2023-03-28T22:50:44.301Z,101755.06
2023-03-28T22:53:12.593Z,101759.31
2023-03-28T22:55:41.696Z,101754.72
2023-03-28T22:58:09.074Z,101755.66
2023-03-28T23:00:36.622Z,101740.53
2023-03-28T23:03:04.144Z,101742.28
2023-03-28T23:05:32.005Z,101745.97
2023-03-28T23:08:00.239Z,101748.88
2023-03-28T23:10:28.118Z,101744.09
2023-03-28T23:12:55.450Z,101748.25
2023-03-28T23:15:22.873Z,101759.75
2023-03-28T23:17:50.910Z,101761.44
2023-03-28T23:20:19.197Z,101757.16
2023-03-28T23:22:48.627Z,101757.41
2023-03-28T23:25:18.709Z,101744.75
2023-03-28T23:27:46.661Z,101733.91
2023-03-28T23:30:15.756Z,101741.06
2023-03-28T23:32:43.509Z,101738.00
2023-03-28T23:35:11.836Z,101737.94
2023-03-28T23:37:39.539Z,101751.66
2023-03-28T23:40:14.839Z,101749.88
2023-03-28T23:42:44.733Z,101748.84
2023-03-28T23:45:14.678Z,101757.56
2023-03-28T23:47:43.959Z,101753.47
2023-03-28T23:50:12.059Z,101748.09
2023-03-28T23:52:39.996Z,101755.63
2023-03-28T23:55:08.770Z,101754.00
2023-03-28T23:57:36.405Z,101754.44
